Gordon, West Virginia
Current Conditions -  °F | °C
As of 11:06 AM on Friday 24 Oct 2014 (Local Time) from KCRW Reporting Station
Haze Haze  
Wind Chill: 45°   Ceiling: 25000
Heat Index: 45°   Visibility: 4mi
Dew Point: 44°   Wind: 0mph
Humidity: 97%   Direction: NA
Pressure: 30.13"   Gusts: NA
Location:  37.99°N, 81.7°W
Report Text: KCRW 241506Z 00000KT 4SM BR SCT000 SCT012 SCT080 BKN250 07/07 A3013 RMK AO2 FG SCT000 T00720067
Loading
Personal Weather Stations






























Interactive Weather Map
Tropical Storm Tracking
New forecast layout! Learn more

10-Day Weather Forecast

Advertisements
Track Severe Weather on mobile